CheckWX is a tool to help pilots better visualize weather data.  It is not intended as a substitute for an official pre-flight weather briefing.

08:54:08 UTC

EGNH METAR
Blackpool International Airport
Blackpool, United Kingdom
Current

34 mins ago

EGNH 180820Z 15009KT 9999 FEW046 08/07 Q0994
Observed
Oct-18 @ 08:20 UTC
Wind
  • 150° at 9 KTS
Visibility
10,000+ meters
Flight Rules
VFR
Cloud Levels
  • Few at 4,600' AGL
Temperature
C / 46°F
Dewpoint
C / 45°F
Humidity
93%
Altimeter
29.35" Hg
Pressure
993.92 hPa
Previous

1 hour ago

EGNH 180750Z 15009KT 9999 FEW033 07/07 Q0994
Observed
Oct-18 @ 07:50 UTC
Wind
  • 150° at 9 KTS
Visibility
10,000+ meters
Flight Rules
VFR
Cloud Levels
  • Few at 3,300' AGL
Temperature
C / 45°F
Dewpoint
C / 45°F
Humidity
100%
Altimeter
29.35" Hg
Pressure
993.92 hPa
Previous

2 hours ago

EGNH 180720Z 14006KT 9999 FEW035 07/06 Q0994
Observed
Oct-18 @ 07:20 UTC
Wind
  • 140° at 6 KTS
Visibility
10,000+ meters
Flight Rules
VFR
Cloud Levels
  • Few at 3,500' AGL
Temperature
C / 45°F
Dewpoint
C / 43°F
Humidity
93%
Altimeter
29.35" Hg
Pressure
993.92 hPa